createdAt,value
2022-12-11T00:00:26.135Z,897.35
2022-12-11T00:02:53.012Z,892.77
2022-12-11T00:05:19.777Z,892.53
2022-12-11T00:07:46.627Z,893.35
2022-12-11T00:10:13.456Z,891.95
2022-12-11T00:12:40.154Z,895.20
2022-12-11T00:15:07.762Z,897.47
2022-12-11T00:17:34.842Z,899.50
2022-12-11T00:20:02.199Z,902.85
2022-12-11T00:22:30.895Z,906.42
2022-12-11T00:24:57.649Z,900.10
2022-12-11T00:27:24.552Z,901.50
2022-12-11T00:29:51.250Z,891.72
2022-12-11T00:32:17.972Z,897.40
2022-12-11T00:34:45.775Z,891.30
2022-12-11T00:37:12.575Z,910.47
2022-12-11T00:39:39.844Z,886.70
2022-12-11T00:42:07.809Z,893.55
2022-12-11T00:44:35.199Z,896.42
2022-12-11T00:47:02.041Z,901.67
2022-12-11T00:49:28.995Z,898.83
2022-12-11T00:51:55.675Z,894.30
2022-12-11T00:54:22.853Z,900.23
2022-12-11T00:56:50.683Z,902.13
2022-12-11T00:59:17.343Z,900.95
2022-12-11T01:01:44.215Z,901.97
2022-12-11T01:04:10.945Z,902.85
2022-12-11T01:06:38.923Z,906.60
2022-12-11T01:09:24.502Z,903.35
2022-12-11T01:11:52.043Z,902.30
2022-12-11T01:14:19.808Z,891.95
2022-12-11T01:16:46.736Z,896.97
2022-12-11T01:19:13.639Z,898.92
2022-12-11T01:21:41.067Z,894.25
2022-12-11T01:24:07.841Z,901.50
2022-12-11T01:26:34.591Z,910.85
2022-12-11T01:29:01.366Z,916.85
2022-12-11T01:31:28.147Z,903.05
2022-12-11T01:33:55.699Z,900.60
2022-12-11T01:36:23.098Z,900.20
2022-12-11T01:38:50.521Z,904.85
2022-12-11T01:41:18.837Z,897.10
2022-12-11T01:44:06.441Z,899.87
2022-12-11T01:46:35.383Z,897.85
2022-12-11T01:49:07.220Z,897.63
2022-12-11T01:51:40.361Z,882.70
2022-12-11T01:54:11.338Z,880.10
2022-12-11T01:56:41.749Z,873.58
2022-12-11T01:59:09.992Z,881.85
2022-12-11T02:01:52.882Z,878.95
2022-12-11T02:04:20.915Z,877.22
2022-12-11T02:06:50.269Z,881.75
2022-12-11T02:09:21.714Z,882.57
2022-12-11T02:12:07.986Z,882.53
2022-12-11T02:14:59.708Z,883.80
2022-12-11T02:17:35.462Z,887.55
2022-12-11T02:20:16.058Z,882.80
2022-12-11T02:23:07.328Z,882.50
2022-12-11T02:26:18.418Z,880.37
2022-12-11T02:28:58.245Z,876.00
2022-12-11T02:31:32.321Z,874.83
2022-12-11T02:34:04.541Z,881.50
2022-12-11T02:36:37.580Z,874.53
2022-12-11T02:39:05.626Z,876.38
2022-12-11T02:41:33.633Z,868.28
2022-12-11T02:44:03.326Z,861.72
2022-12-11T02:46:32.994Z,856.33
2022-12-11T02:49:00.687Z,861.20
2022-12-11T02:51:33.908Z,864.50
2022-12-11T02:54:03.532Z,863.13
2022-12-11T02:56:39.222Z,869.35
2022-12-11T02:59:15.538Z,869.63
2022-12-11T03:01:43.195Z,858.88
2022-12-11T03:04:10.076Z,865.60
2022-12-11T03:06:42.641Z,865.22
2022-12-11T03:09:09.712Z,871.17
2022-12-11T03:11:36.462Z,874.40
2022-12-11T03:14:05.274Z,878.25
2022-12-11T03:17:04.347Z,880.00
2022-12-11T03:19:42.931Z,879.92
2022-12-11T03:22:16.416Z,880.70
2022-12-11T03:24:51.658Z,881.43
2022-12-11T03:27:34.468Z,884.07
2022-12-11T03:30:06.865Z,879.67
2022-12-11T03:33:00.638Z,884.40
2022-12-11T03:35:35.366Z,880.58
2022-12-11T03:38:11.423Z,881.90
2022-12-11T03:40:42.007Z,883.07
2022-12-11T03:43:10.810Z,884.45
2022-12-11T03:45:38.957Z,883.55
2022-12-11T03:48:07.174Z,887.28
2022-12-11T03:50:35.186Z,884.88
2022-12-11T03:53:03.299Z,886.77
2022-12-11T03:55:32.660Z,883.83
2022-12-11T03:57:59.456Z,885.75
2022-12-11T04:00:26.526Z,884.08
2022-12-11T04:03:13.967Z,880.88
2022-12-11T04:05:52.195Z,879.90
2022-12-11T04:08:21.123Z,877.17
2022-12-11T04:10:48.421Z,882.53
2022-12-11T04:13:15.239Z,883.53
2022-12-11T04:15:42.086Z,886.28
2022-12-11T04:18:28.615Z,891.20
2022-12-11T04:21:14.704Z,889.40
2022-12-11T04:24:00.294Z,895.58
2022-12-11T04:26:27.285Z,890.63
2022-12-11T04:28:54.130Z,893.00
2022-12-11T04:31:22.749Z,888.88
2022-12-11T04:33:49.669Z,889.53
2022-12-11T04:36:16.682Z,870.77
2022-12-11T04:38:43.502Z,874.25
2022-12-11T04:41:13.555Z,877.47
2022-12-11T04:43:40.635Z,878.38
2022-12-11T04:46:09.653Z,878.05
2022-12-11T04:48:37.401Z,877.20
2022-12-11T04:51:04.929Z,875.37
2022-12-11T04:53:31.745Z,881.92
2022-12-11T04:55:58.614Z,882.50
2022-12-11T04:58:26.087Z,876.10
2022-12-11T05:00:53.324Z,877.30
2022-12-11T05:03:20.524Z,876.92
2022-12-11T05:05:51.774Z,881.65
2022-12-11T05:08:21.625Z,884.85
2022-12-11T05:11:03.132Z,876.20
2022-12-11T05:13:30.466Z,882.88
2022-12-11T05:15:57.602Z,879.03
2022-12-11T05:18:24.795Z,874.90
2022-12-11T05:20:58.718Z,880.05
2022-12-11T05:23:26.352Z,876.65
2022-12-11T05:26:01.885Z,868.40
2022-12-11T05:28:30.492Z,856.00
2022-12-11T05:30:59.617Z,868.73
2022-12-11T05:33:26.618Z,870.87
2022-12-11T05:35:54.467Z,870.95
2022-12-11T05:38:22.589Z,872.92
2022-12-11T05:41:00.762Z,874.63
2022-12-11T05:43:30.266Z,875.60
2022-12-11T05:46:06.289Z,873.77
2022-12-11T05:48:33.027Z,869.70
2022-12-11T05:51:01.084Z,867.83
2022-12-11T05:53:28.309Z,876.78
2022-12-11T05:55:55.381Z,883.63
2022-12-11T05:58:22.167Z,862.33
2022-12-11T06:00:48.914Z,870.10
2022-12-11T06:03:15.885Z,865.50
2022-12-11T06:05:43.013Z,865.17
2022-12-11T06:08:10.071Z,867.85
2022-12-11T06:10:37.249Z,870.03
2022-12-11T06:13:04.145Z,863.95
2022-12-11T06:15:30.797Z,868.63
2022-12-11T06:17:57.594Z,858.83
2022-12-11T06:20:24.325Z,865.83
2022-12-11T06:22:51.150Z,870.72
2022-12-11T06:25:18.073Z,862.47
2022-12-11T06:27:44.845Z,864.55
2022-12-11T06:30:12.163Z,868.80
2022-12-11T06:32:38.964Z,865.05
2022-12-11T06:35:06.233Z,869.78
2022-12-11T06:37:34.215Z,865.22
2022-12-11T06:40:01.042Z,864.65
2022-12-11T06:42:30.784Z,869.28
2022-12-11T06:44:59.641Z,875.47
2022-12-11T06:47:27.894Z,868.17
2022-12-11T06:49:54.744Z,875.28
2022-12-11T06:52:26.825Z,880.23
2022-12-11T06:54:53.810Z,881.43
2022-12-11T06:57:20.916Z,885.17
2022-12-11T06:59:47.611Z,866.90
2022-12-11T07:02:16.550Z,888.35
2022-12-11T07:04:43.663Z,880.42
2022-12-11T07:07:10.553Z,864.00
2022-12-11T07:09:39.794Z,864.58
2022-12-11T07:12:07.193Z,867.07
2022-12-11T07:14:34.029Z,860.10
2022-12-11T07:17:00.875Z,860.00
2022-12-11T07:19:27.760Z,858.30
2022-12-11T07:21:54.438Z,863.40
2022-12-11T07:24:21.161Z,862.93
2022-12-11T07:26:47.950Z,867.40
2022-12-11T07:29:14.695Z,865.58
2022-12-11T07:31:43.296Z,868.30
2022-12-11T07:34:12.730Z,864.80
2022-12-11T07:36:39.755Z,867.22
2022-12-11T07:39:07.478Z,867.95
2022-12-11T07:41:34.761Z,866.45
2022-12-11T07:44:01.582Z,862.13
2022-12-11T07:46:30.594Z,865.08
2022-12-11T07:49:00.770Z,861.17
2022-12-11T07:51:30.422Z,859.13
2022-12-11T07:54:03.042Z,858.78
2022-12-11T07:56:30.824Z,865.45
2022-12-11T07:59:03.510Z,864.90
2022-12-11T08:01:32.164Z,860.67
2022-12-11T08:03:59.077Z,841.00
2022-12-11T08:06:31.669Z,842.63
2022-12-11T08:08:59.858Z,836.30
2022-12-11T08:11:27.532Z,836.63
2022-12-11T08:13:55.103Z,834.53
2022-12-11T08:16:22.516Z,842.92
2022-12-11T08:18:49.350Z,831.10
2022-12-11T08:21:21.751Z,827.65
2022-12-11T08:23:49.839Z,827.25
2022-12-11T08:26:19.684Z,826.00
2022-12-11T08:28:46.853Z,825.65
2022-12-11T08:31:15.707Z,826.97
2022-12-11T08:33:43.042Z,823.00
2022-12-11T08:36:13.334Z,825.50
2022-12-11T08:38:40.663Z,830.47
2022-12-11T08:41:12.202Z,830.90
2022-12-11T08:43:39.587Z,825.08
2022-12-11T08:46:07.216Z,824.42
2022-12-11T08:48:35.051Z,825.72
2022-12-11T08:51:03.132Z,832.47
2022-12-11T08:53:30.861Z,823.88
2022-12-11T08:56:05.542Z,826.40
2022-12-11T08:58:32.873Z,829.35
2022-12-11T09:00:59.897Z,827.92
2022-12-11T09:03:27.098Z,827.28
2022-12-11T09:05:53.952Z,829.33
2022-12-11T09:08:20.867Z,832.35
2022-12-11T09:10:47.786Z,829.25
2022-12-11T09:13:14.707Z,831.60
2022-12-11T09:15:41.741Z,829.70
2022-12-11T09:18:09.745Z,833.47
2022-12-11T09:20:36.612Z,839.90
2022-12-11T09:23:03.544Z,837.85
2022-12-11T09:25:30.298Z,834.63
2022-12-11T09:27:57.049Z,838.93
2022-12-11T09:30:23.887Z,837.85
2022-12-11T09:32:51.657Z,834.38
2022-12-11T09:35:18.310Z,839.83
2022-12-11T09:37:45.147Z,841.47
2022-12-11T09:40:13.640Z,843.65
2022-12-11T09:42:52.818Z,840.58
2022-12-11T09:45:20.184Z,840.67
2022-12-11T09:47:51.630Z,843.80
2022-12-11T09:50:25.691Z,845.22
2022-12-11T09:53:28.642Z,840.17
2022-12-11T09:56:13.398Z,841.30
2022-12-11T09:59:01.498Z,837.60
2022-12-11T10:01:37.142Z,832.55
2022-12-11T10:04:27.439Z,837.10
2022-12-11T10:07:15.109Z,831.00
2022-12-11T10:09:51.464Z,829.70
2022-12-11T10:12:40.281Z,829.08
2022-12-11T10:15:25.970Z,824.45
2022-12-11T10:18:01.299Z,822.17
2022-12-11T10:20:36.447Z,822.77
2022-12-11T10:23:07.540Z,822.15
2022-12-11T10:25:39.849Z,826.58
2022-12-11T10:28:14.971Z,821.80
2022-12-11T10:31:03.205Z,882.00
2022-12-11T10:33:45.568Z,865.17
2022-12-11T10:36:18.601Z,844.80
2022-12-11T10:38:47.418Z,843.10
2022-12-11T10:41:20.885Z,840.55
2022-12-11T10:43:52.939Z,840.15
2022-12-11T10:46:19.596Z,839.13
2022-12-11T10:48:50.655Z,835.97
2022-12-11T10:51:17.769Z,828.95
2022-12-11T10:54:01.365Z,834.20
2022-12-11T10:56:33.428Z,829.20
2022-12-11T10:59:01.279Z,829.88
2022-12-11T11:01:30.916Z,831.42
2022-12-11T11:04:18.147Z,830.70
2022-12-11T11:06:44.974Z,832.95
2022-12-11T11:09:36.195Z,838.67
2022-12-11T11:12:07.923Z,838.92
2022-12-11T11:14:35.052Z,842.15
2022-12-11T11:17:02.855Z,829.33
2022-12-11T11:19:36.905Z,831.03
2022-12-11T11:22:12.957Z,832.65
2022-12-11T11:24:56.045Z,831.42
2022-12-11T11:27:42.045Z,832.35
2022-12-11T11:30:24.511Z,831.30
2022-12-11T11:33:12.214Z,829.73
2022-12-11T11:35:45.531Z,827.92
2022-12-11T11:38:19.260Z,825.37
2022-12-11T11:40:53.110Z,830.75
2022-12-11T11:43:59.006Z,830.63
2022-12-11T11:46:28.426Z,832.10
2022-12-11T11:49:10.310Z,837.90
2022-12-11T11:51:47.664Z,839.03
2022-12-11T11:54:46.826Z,839.95
2022-12-11T11:57:24.695Z,837.47
2022-12-11T11:59:55.946Z,833.13
2022-12-11T12:02:22.792Z,837.20
2022-12-11T12:04:51.254Z,836.87
2022-12-11T12:07:40.606Z,832.03
2022-12-11T12:10:31.437Z,824.65
2022-12-11T12:13:48.654Z,832.95
2022-12-11T12:16:52.703Z,834.75
2022-12-11T12:19:31.695Z,825.10
2022-12-11T12:22:08.186Z,827.40
2022-12-11T12:25:00.294Z,823.60
2022-12-11T12:27:53.908Z,822.75
2022-12-11T12:30:23.441Z,824.50
2022-12-11T12:33:26.378Z,820.20
2022-12-11T12:36:10.091Z,826.88
2022-12-11T12:39:05.654Z,830.85
2022-12-11T12:42:10.718Z,823.47
2022-12-11T12:44:59.459Z,821.60
2022-12-11T12:47:32.304Z,818.63
2022-12-11T12:50:02.487Z,821.13
2022-12-11T12:52:36.201Z,822.70
2022-12-11T12:55:25.220Z,818.70
2022-12-11T12:57:57.786Z,815.00
2022-12-11T13:00:40.539Z,826.33
2022-12-11T13:03:37.010Z,817.45
2022-12-11T13:06:07.710Z,820.30
2022-12-11T13:08:41.125Z,827.03
2022-12-11T13:11:12.002Z,829.25
2022-12-11T13:13:48.971Z,834.25
2022-12-11T13:16:18.395Z,834.03
2022-12-11T13:18:47.504Z,830.30
2022-12-11T13:21:30.835Z,827.17
2022-12-11T13:24:12.956Z,837.13
2022-12-11T13:26:40.151Z,830.65
2022-12-11T13:29:27.470Z,835.23
2022-12-11T13:32:11.293Z,835.33
2022-12-11T13:34:41.041Z,840.10
2022-12-11T13:37:32.963Z,830.95
2022-12-11T13:40:03.372Z,837.10
2022-12-11T13:42:37.066Z,835.63
2022-12-11T13:45:05.381Z,834.88
2022-12-11T13:47:32.913Z,833.95
2022-12-11T13:50:18.762Z,842.08
2022-12-11T13:52:55.311Z,844.60
2022-12-11T13:55:34.084Z,846.40
2022-12-11T13:58:01.404Z,852.07
2022-12-11T14:00:32.546Z,842.30
2022-12-11T14:03:02.954Z,843.97
2022-12-11T14:05:29.859Z,842.25
2022-12-11T14:08:02.228Z,847.25
2022-12-11T14:10:32.360Z,843.27
2022-12-11T14:13:29.749Z,848.45
2022-12-11T14:15:56.729Z,847.13
2022-12-11T14:18:27.313Z,838.97
2022-12-11T14:21:01.990Z,831.08
2022-12-11T14:23:31.694Z,835.35
2022-12-11T14:26:04.344Z,835.05
2022-12-11T14:28:38.119Z,828.47
2022-12-11T14:31:06.395Z,827.65
2022-12-11T14:33:38.397Z,826.88
2022-12-11T14:36:06.473Z,829.35
2022-12-11T14:38:37.213Z,825.55
2022-12-11T14:41:11.510Z,837.10
2022-12-11T14:43:45.503Z,827.55
2022-12-11T14:46:18.717Z,815.60
2022-12-11T14:49:00.628Z,812.60
2022-12-11T14:51:34.130Z,822.13
2022-12-11T14:54:04.071Z,832.17
2022-12-11T14:56:31.790Z,827.88
2022-12-11T14:59:06.409Z,821.95
2022-12-11T15:01:35.839Z,828.25
2022-12-11T15:04:14.622Z,827.33
2022-12-11T15:06:49.545Z,828.35
2022-12-11T15:09:37.240Z,823.20
2022-12-11T15:12:16.434Z,829.42
2022-12-11T15:14:50.904Z,828.97
2022-12-11T15:17:19.088Z,820.78
2022-12-11T15:19:51.741Z,824.03
2022-12-11T15:22:21.282Z,834.70
2022-12-11T15:24:52.697Z,830.07
2022-12-11T15:27:32.962Z,829.38
2022-12-11T15:29:59.779Z,820.50
2022-12-11T15:32:26.577Z,822.80
2022-12-11T15:35:00.320Z,822.73
2022-12-11T15:37:31.679Z,834.22
2022-12-11T15:40:01.338Z,827.88
2022-12-11T15:42:35.446Z,825.28
2022-12-11T15:45:05.260Z,813.47
2022-12-11T15:47:32.666Z,816.70
2022-12-11T15:50:02.750Z,814.72
2022-12-11T15:52:29.610Z,808.80
2022-12-11T15:54:56.249Z,811.30
2022-12-11T15:57:24.527Z,806.28
2022-12-11T15:59:53.971Z,814.50
2022-12-11T16:02:20.823Z,825.73
2022-12-11T16:04:47.578Z,830.13
2022-12-11T16:07:20.990Z,830.47
2022-12-11T16:09:49.392Z,834.22
2022-12-11T16:12:16.197Z,831.97
2022-12-11T16:14:44.539Z,818.60
2022-12-11T16:17:14.626Z,822.30
2022-12-11T16:19:43.043Z,821.03
2022-12-11T16:22:10.912Z,815.30
2022-12-11T16:24:38.264Z,819.97
2022-12-11T16:27:06.359Z,815.88
2022-12-11T16:29:37.625Z,813.10
2022-12-11T16:32:06.906Z,815.22
2022-12-11T16:34:33.925Z,818.53
2022-12-11T16:37:01.179Z,812.80
2022-12-11T16:39:28.193Z,806.88
2022-12-11T16:41:54.950Z,807.72
2022-12-11T16:44:23.572Z,818.10
2022-12-11T16:46:50.715Z,823.22
2022-12-11T16:49:17.923Z,824.25
2022-12-11T16:51:44.709Z,830.80
2022-12-11T16:54:12.047Z,834.90
2022-12-11T16:56:39.223Z,824.00
2022-12-11T16:59:06.322Z,823.45
2022-12-11T17:01:33.656Z,831.28
2022-12-11T17:04:00.910Z,826.92
2022-12-11T17:06:27.867Z,825.63
2022-12-11T17:08:54.749Z,820.95
2022-12-11T17:11:23.059Z,817.72
2022-12-11T17:13:57.836Z,811.17
2022-12-11T17:16:26.452Z,822.67
2022-12-11T17:18:53.664Z,817.95
2022-12-11T17:21:22.151Z,820.55
2022-12-11T17:23:50.387Z,819.90
2022-12-11T17:26:17.306Z,820.97
2022-12-11T17:28:44.872Z,820.45
2022-12-11T17:31:17.694Z,820.03
2022-12-11T17:33:45.506Z,821.47
2022-12-11T17:36:18.169Z,817.78
2022-12-11T17:38:45.500Z,811.78
2022-12-11T17:41:20.023Z,831.67
2022-12-11T17:43:48.209Z,836.97
2022-12-11T17:46:15.016Z,856.88
2022-12-11T17:48:42.971Z,845.80
2022-12-11T17:51:12.998Z,840.40
2022-12-11T17:53:40.371Z,848.05
2022-12-11T17:56:08.538Z,838.75
2022-12-11T17:58:35.221Z,838.25
2022-12-11T18:01:07.829Z,854.67
2022-12-11T18:03:35.210Z,855.33
2022-12-11T18:06:14.726Z,868.83
2022-12-11T18:08:42.055Z,860.23
2022-12-11T18:11:13.289Z,860.67
2022-12-11T18:13:40.302Z,854.53
2022-12-11T18:16:11.322Z,850.42
2022-12-11T18:18:39.194Z,850.03
2022-12-11T18:21:06.644Z,847.58
2022-12-11T18:23:33.505Z,851.60
2022-12-11T18:26:00.476Z,851.58
2022-12-11T18:28:27.435Z,849.33
2022-12-11T18:30:54.297Z,848.70
2022-12-11T18:33:21.898Z,851.60
2022-12-11T18:35:50.267Z,850.10
2022-12-11T18:38:17.034Z,856.25
2022-12-11T18:40:43.744Z,847.08
2022-12-11T18:43:10.661Z,843.90
2022-12-11T18:45:41.952Z,845.72
2022-12-11T18:48:09.593Z,856.20
2022-12-11T18:50:36.863Z,859.72
2022-12-11T18:53:04.209Z,862.45
2022-12-11T18:55:31.089Z,865.42
2022-12-11T18:57:58.138Z,869.75
2022-12-11T19:00:26.516Z,867.80
2022-12-11T19:02:54.463Z,870.67
2022-12-11T19:05:21.297Z,857.28
2022-12-11T19:07:48.108Z,861.15
2022-12-11T19:10:14.968Z,852.08
2022-12-11T19:12:42.856Z,850.88
2022-12-11T19:15:10.865Z,856.90
2022-12-11T19:17:38.909Z,855.55
2022-12-11T19:20:32.306Z,853.92
2022-12-11T19:22:54.296Z,839.08
2022-12-11T19:25:21.130Z,837.95
2022-12-11T19:27:50.029Z,850.50
2022-12-11T19:30:16.871Z,853.80
2022-12-11T19:32:47.225Z,853.93
2022-12-11T19:35:15.005Z,859.33
2022-12-11T19:37:42.305Z,864.05
2022-12-11T19:40:10.223Z,857.05
2022-12-11T19:42:36.928Z,848.17
2022-12-11T19:45:04.130Z,846.93
2022-12-11T19:47:30.837Z,869.90
2022-12-11T19:49:57.788Z,859.67
2022-12-11T19:52:25.660Z,870.67
2022-12-11T19:54:53.496Z,53.00
2022-12-11T19:57:20.161Z,68.45
2022-12-11T19:59:48.612Z,6.30
2022-12-11T20:02:19.589Z,6.43
2022-12-11T20:04:47.246Z,6.75
2022-12-11T20:07:13.954Z,6.67
2022-12-11T20:09:40.740Z,6.55
2022-12-11T20:12:10.232Z,5.82
2022-12-11T20:14:38.350Z,6.93
2022-12-11T20:17:12.375Z,6.78
2022-12-11T20:19:40.508Z,6.80
2022-12-11T20:22:09.337Z,6.50
2022-12-11T20:24:36.128Z,6.78
2022-12-11T20:27:02.998Z,6.88
2022-12-11T20:29:29.721Z,6.78
2022-12-11T20:31:57.555Z,6.85
2022-12-11T20:34:24.431Z,21.63
2022-12-11T20:36:52.526Z,19.30
2022-12-11T20:39:19.546Z,6.85
2022-12-11T20:41:46.262Z,6.60
2022-12-11T20:44:12.998Z,7.25
2022-12-11T20:46:40.784Z,6.83
2022-12-11T20:49:12.625Z,7.88
2022-12-11T20:51:40.202Z,6.60
2022-12-11T20:54:08.871Z,6.97
2022-12-11T20:56:37.528Z,6.57
2022-12-11T20:59:04.457Z,6.68
2022-12-11T21:01:32.597Z,6.32
2022-12-11T21:04:02.964Z,6.73
2022-12-11T21:06:33.367Z,6.30
2022-12-11T21:09:01.866Z,6.40
2022-12-11T21:11:29.223Z,6.95
2022-12-11T21:13:56.116Z,6.85
2022-12-11T21:16:23.750Z,6.35
2022-12-11T21:18:50.555Z,6.13
2022-12-11T21:21:17.901Z,6.60
2022-12-11T21:23:44.951Z,6.93
2022-12-11T21:26:12.086Z,6.17
2022-12-11T21:28:38.801Z,6.70
2022-12-11T21:31:08.958Z,6.13
2022-12-11T21:33:37.130Z,6.40
2022-12-11T21:36:05.819Z,6.00
2022-12-11T21:38:33.813Z,6.73
2022-12-11T21:41:22.360Z,6.10
2022-12-11T21:46:40.572Z,6.28
2022-12-11T21:49:08.405Z,7.25
2022-12-11T21:51:41.380Z,6.28
2022-12-11T21:54:14.179Z,6.68
2022-12-11T21:56:41.255Z,5.70
2022-12-11T21:59:08.317Z,5.78
2022-12-11T22:01:38.787Z,5.80
2022-12-11T22:04:05.997Z,5.85
2022-12-11T22:06:33.220Z,5.43
2022-12-11T22:09:00.294Z,6.43
2022-12-11T22:11:29.725Z,6.00
2022-12-11T22:13:56.749Z,5.80
2022-12-11T22:16:23.777Z,6.45
2022-12-11T22:18:50.745Z,6.13
2022-12-11T22:21:17.811Z,5.53
2022-12-11T22:23:44.834Z,6.80
2022-12-11T22:26:16.458Z,5.50
2022-12-11T22:28:43.308Z,6.47
2022-12-11T22:31:12.128Z,5.35
2022-12-11T22:33:39.156Z,10.73
2022-12-11T22:36:06.551Z,5.20
2022-12-11T22:38:34.541Z,5.88
2022-12-11T22:41:09.072Z,5.20
2022-12-11T22:43:36.873Z,5.00
2022-12-11T22:46:03.789Z,4.88
2022-12-11T22:48:30.957Z,5.40
2022-12-11T22:50:57.894Z,5.70
2022-12-11T22:53:25.817Z,5.53
2022-12-11T22:55:53.353Z,5.65
2022-12-11T22:58:21.866Z,5.70
2022-12-11T23:00:49.297Z,4.95
2022-12-11T23:03:17.087Z,5.25
2022-12-11T23:05:43.801Z,7.07
2022-12-11T23:08:10.647Z,5.47
2022-12-11T23:10:40.831Z,11.70
2022-12-11T23:13:08.321Z,5.75
2022-12-11T23:15:34.989Z,53.55
2022-12-11T23:18:01.947Z,4.60
2022-12-11T23:20:29.024Z,4.90
2022-12-11T23:22:55.834Z,4.83
2022-12-11T23:25:22.664Z,4.90
2022-12-11T23:27:49.658Z,5.07
2022-12-11T23:30:16.406Z,5.40
2022-12-11T23:32:43.131Z,4.70
2022-12-11T23:35:10.372Z,5.43
2022-12-11T23:37:37.428Z,13.90
2022-12-11T23:40:05.330Z,4.78
2022-12-11T23:42:33.876Z,5.00
2022-12-11T23:45:00.698Z,4.95
2022-12-11T23:47:27.819Z,5.07
2022-12-11T23:49:54.586Z,5.10
2022-12-11T23:52:22.557Z,5.23
2022-12-11T23:54:51.364Z,4.80
2022-12-11T23:57:18.174Z,4.87
2022-12-11T23:59:45.872Z,5.15
